Time;durP1;ratioP1;P1;durP2;ratioP2;P2;SDS_P1;SDS_P2;PMS_P1;PMS_P2;Temp;Humidity;BMP_temperature;BMP_pressure;BME280_temperature;BME280_humidity;BME280_pressure;Samples;Min_cycle;Max_cycle;Signal;HPM_P1;HPM_P2
2022/10/17 00:01:30;;;;;;;0.70;0.70;;;12.60;99.90;;;;;;5014492;28;20171;-71
2022/10/17 00:03:56;;;;;;;0.87;0.87;;;12.70;99.90;;;;;;5014352;28;20229;-71
2022/10/17 00:06:21;;;;;;;0.30;0.30;;;12.70;99.90;;;;;;5014359;28;20581;-72
2022/10/17 00:08:47;;;;;;;0.83;0.73;;;12.70;99.90;;;;;;5013866;28;20729;-70
2022/10/17 00:11:16;;;;;;;0.87;0.50;;;12.60;99.90;;;;;;5012835;28;20232;-70
2022/10/17 00:13:42;;;;;;;0.50;0.50;;;12.50;99.90;;;;;;5012805;28;20175;-73
2022/10/17 00:16:08;;;;;;;0.30;0.30;;;12.60;99.90;;;;;;5014273;28;20433;-72
2022/10/17 00:18:34;;;;;;;0.60;0.60;;;12.50;99.90;;;;;;5013887;28;20514;-71
2022/10/17 00:20:59;;;;;;;0.40;0.40;;;12.60;99.90;;;;;;5013937;28;20656;-70
2022/10/17 00:23:27;;;;;;;0.40;0.40;;;12.60;99.90;;;;;;5013933;28;20171;-71
2022/10/17 00:26:04;;;;;;;0.50;0.50;;;12.60;99.90;;;;;;5013894;28;20709;-72
2022/10/17 00:28:30;;;;;;;1.10;1.10;;;12.70;99.90;;;;;;5013792;28;20437;-70
2022/10/17 00:31:01;;;;;;;0.50;0.50;;;12.80;99.90;;;;;;5013706;28;20521;-69
2022/10/17 00:33:28;;;;;;;0.47;0.47;;;12.80;99.90;;;;;;5014026;28;20469;-69
2022/10/17 00:36:12;;;;;;;0.40;0.40;;;12.90;99.90;;;;;;5013771;28;20417;-69
2022/10/17 00:38:39;;;;;;;0.40;0.40;;;12.90;99.90;;;;;;5013647;28;20987;-69
2022/10/17 00:41:05;;;;;;;0.60;0.60;;;12.80;99.90;;;;;;5013671;28;20430;-69
2022/10/17 00:43:53;;;;;;;0.40;0.40;;;12.90;99.90;;;;;;5013918;28;20753;-69
2022/10/17 00:46:20;;;;;;;1.50;1.40;;;12.80;99.90;;;;;;5006822;28;20442;-69
2022/10/17 00:48:48;;;;;;;0.40;0.40;;;12.80;99.90;;;;;;5013792;28;20430;-69
2022/10/17 00:51:15;;;;;;;0.50;0.50;;;12.70;99.90;;;;;;5013712;28;20494;-68
2022/10/17 00:53:41;;;;;;;0.90;0.90;;;12.60;99.90;;;;;;5013559;28;20425;-68
2022/10/17 00:56:07;;;;;;;2.77;2.67;;;12.60;99.90;;;;;;5013774;28;20404;-68
2022/10/17 00:58:33;;;;;;;1.07;1.07;;;12.50;99.90;;;;;;5013544;28;20278;-68
2022/10/17 01:00:58;;;;;;;0.40;0.40;;;12.50;99.90;;;;;;5013303;28;20820;-69
2022/10/17 01:03:24;;;;;;;0.83;0.70;;;12.40;99.90;;;;;;5013725;28;20173;-68
2022/10/17 01:05:50;;;;;;;0.50;0.50;;;12.40;99.90;;;;;;5016583;28;20416;-70
2022/10/17 01:08:15;;;;;;;1.23;0.73;;;12.40;99.90;;;;;;5017335;28;20195;-70
2022/10/17 01:11:05;;;;;;;0.30;0.30;;;12.40;99.90;;;;;;5017405;28;20179;-69
2022/10/17 01:14:01;;;;;;;0.30;0.30;;;12.40;99.90;;;;;;5017368;28;20210;-68
2022/10/17 01:17:16;;;;;;;0.53;0.53;;;12.40;99.90;;;;;;5002965;28;20426;-68
2022/10/17 01:20:04;;;;;;;0.73;0.73;;;12.40;99.90;;;;;;5001280;28;20435;-69
2022/10/17 01:23:03;;;;;;;1.90;1.00;;;12.50;99.90;;;;;;5017458;28;20412;-68
2022/10/17 01:26:07;;;;;;;0.40;0.40;;;12.50;99.90;;;;;;5017288;28;20432;-70
2022/10/17 01:28:33;;;;;;;0.30;0.30;;;;;;;;;;4996231;28;21051;-70
2022/10/17 01:31:04;;;;;;;0.40;0.40;;;12.40;99.90;;;;;;5016952;28;20407;-70
2022/10/17 01:33:32;;;;;;;1.43;1.33;;;12.40;99.90;;;;;;5017089;28;20401;-68
2022/10/17 01:36:13;;;;;;;0.40;0.40;;;12.40;99.90;;;;;;5017035;28;20501;-70
2022/10/17 01:38:47;;;;;;;0.60;0.60;;;12.40;99.90;;;;;;5017183;28;20466;-69
2022/10/17 01:41:33;;;;;;;0.50;0.50;;;12.30;99.90;;;;;;5017063;28;20409;-68
2022/10/17 01:44:24;;;;;;;0.60;0.60;;;12.20;99.90;;;;;;5017059;28;20438;-69
2022/10/17 01:46:55;;;;;;;0.60;0.60;;;12.30;99.90;;;;;;5016578;28;20432;-68
2022/10/17 01:49:25;;;;;;;0.57;0.57;;;12.30;99.90;;;;;;5016576;28;20875;-68
2022/10/17 01:51:59;;;;;;;0.50;0.50;;;12.30;99.90;;;;;;5016738;28;20420;-71
2022/10/17 01:54:31;;;;;;;0.30;0.30;;;12.30;99.90;;;;;;5016831;28;20479;-70
2022/10/17 01:57:00;;;;;;;0.73;0.73;;;12.30;99.90;;;;;;5016400;28;20543;-70
2022/10/17 01:59:34;;;;;;;1.13;1.13;;;12.30;99.90;;;;;;5016586;28;20900;-70
2022/10/17 02:02:01;;;;;;;0.50;0.50;;;12.40;99.90;;;;;;5016724;28;20799;-68
2022/10/17 02:04:27;;;;;;;0.40;0.40;;;12.30;99.90;;;;;;5016531;28;20437;-69
2022/10/17 02:06:54;;;;;;;0.70;0.70;;;12.40;99.90;;;;;;5016539;28;20912;-70
2022/10/17 02:09:24;;;;;;;0.30;0.30;;;12.30;99.90;;;;;;5016270;28;20405;-70
2022/10/17 02:12:05;;;;;;;0.80;0.80;;;12.40;99.90;;;;;;5016272;28;20402;-70
2022/10/17 02:14:59;;;;;;;2.00;0.60;;;12.40;99.90;;;;;;5016232;28;20464;-68
2022/10/17 02:17:48;;;;;;;0.53;0.53;;;12.40;99.90;;;;;;5015072;28;20485;-67
2022/10/17 02:20:24;;;;;;;0.63;0.63;;;12.40;99.90;;;;;;4996934;28;20425;-70
2022/10/17 02:23:06;;;;;;;0.50;0.50;;;12.30;99.90;;;;;;5016138;28;20895;-69
2022/10/17 02:25:34;;;;;;;0.30;0.30;;;12.20;99.90;;;;;;5016308;28;20761;-67
2022/10/17 02:28:20;;;;;;;0.60;0.60;;;12.10;99.90;;;;;;5015887;28;20480;-70
2022/10/17 02:31:00;;;;;;;0.53;0.53;;;12.10;99.90;;;;;;5015883;28;20763;-69
2022/10/17 02:33:44;;;;;;;2.03;1.40;;;12.00;99.90;;;;;;5016240;28;20406;-70
2022/10/17 02:36:25;;;;;;;0.43;0.43;;;12.00;99.90;;;;;;5016024;28;20410;-70
2022/10/17 02:38:53;;;;;;;0.50;0.50;;;12.00;99.90;;;;;;5015487;28;20905;-70
2022/10/17 02:41:22;;;;;;;0.40;0.40;;;12.10;99.90;;;;;;5016106;28;20453;-69
2022/10/17 02:43:50;;;;;;;0.93;0.50;;;12.10;99.90;;;;;;5015763;28;20451;-69
2022/10/17 02:46:21;;;;;;;1.63;0.50;;;12.20;99.90;;;;;;5015505;28;20436;-67
2022/10/17 02:48:54;;;;;;;0.70;0.53;;;12.20;99.90;;;;;;5015353;28;20441;-71
2022/10/17 02:51:42;;;;;;;0.30;0.30;;;12.30;99.90;;;;;;5015510;28;20406;-69
2022/10/17 02:54:29;;;;;;;0.40;0.40;;;12.40;99.90;;;;;;5015504;28;20415;-70
2022/10/17 02:57:10;;;;;;;0.40;0.40;;;12.40;99.90;;;;;;5015378;28;20465;-67
2022/10/17 02:59:38;;;;;;;0.40;0.40;;;12.30;99.90;;;;;;5015580;28;20391;-67
2022/10/17 03:02:05;;;;;;;0.70;0.40;;;12.40;99.90;;;;;;5015361;28;20411;-70
2022/10/17 03:04:31;;;;;;;0.40;0.40;;;12.50;99.90;;;;;;5015317;28;20405;-69
2022/10/17 03:06:56;;;;;;;3.30;1.23;;;12.50;99.90;;;;;;5015218;28;20430;-70
2022/10/17 03:09:22;;;;;;;0.40;0.40;;;12.40;99.90;;;;;;5015022;28;20263;-69
2022/10/17 03:11:47;;;;;;;0.30;0.30;;;12.40;99.90;;;;;;5015292;28;20215;-68
2022/10/17 03:14:13;;;;;;;0.40;0.40;;;12.30;99.90;;;;;;5013825;28;20221;-68
2022/10/17 03:16:39;;;;;;;1.87;1.77;;;12.30;99.90;;;;;;5014896;28;20171;-68
2022/10/17 03:19:04;;;;;;;0.70;0.70;;;12.40;99.90;;;;;;5013538;28;20182;-69
2022/10/17 03:21:30;;;;;;;0.30;0.30;;;12.50;99.90;;;;;;5015098;28;20171;-70
2022/10/17 03:23:55;;;;;;;0.30;0.30;;;12.40;99.90;;;;;;5015077;28;20172;-70
2022/10/17 03:26:21;;;;;;;0.30;0.30;;;12.40;99.90;;;;;;5014772;28;20172;-70
2022/10/17 03:28:47;;;;;;;0.50;0.50;;;12.30;99.90;;;;;;5014487;28;20203;-68
2022/10/17 03:31:15;;;;;;;1.63;1.53;;;12.30;99.90;;;;;;5014801;28;20176;-70
2022/10/17 03:33:41;;;;;;;1.90;0.90;;;12.30;99.90;;;;;;5014859;28;20186;-68
2022/10/17 03:36:13;;;;;;;1.43;0.40;;;12.30;99.90;;;;;;5014653;28;20457;-70
2022/10/17 03:38:39;;;;;;;1.23;0.50;;;12.20;99.90;;;;;;5014486;28;20561;-69
2022/10/17 03:41:05;;;;;;;0.37;0.37;;;12.10;99.90;;;;;;5014294;28;20502;-69
2022/10/17 03:43:31;;;;;;;0.40;0.40;;;12.20;99.90;;;;;;5014598;28;20566;-70
2022/10/17 03:45:58;;;;;;;0.67;0.67;;;12.20;99.90;;;;;;5013029;28;21002;-68
2022/10/17 03:48:24;;;;;;;2.30;0.60;;;12.20;99.90;;;;;;5013138;28;20473;-68
2022/10/17 03:50:50;;;;;;;0.60;0.60;;;12.20;99.90;;;;;;5014285;28;20414;-69
2022/10/17 03:53:16;;;;;;;0.80;0.80;;;12.20;99.90;;;;;;5014546;28;20410;-70
2022/10/17 03:55:41;;;;;;;0.60;0.60;;;;;;;;;;5014517;28;20499;-70
2022/10/17 03:58:07;;;;;;;2.57;0.83;;;12.30;99.90;;;;;;5014179;28;20676;-67
2022/10/17 04:00:35;;;;;;;0.37;0.37;;;12.30;99.90;;;;;;5014167;28;20410;-70
2022/10/17 04:03:01;;;;;;;1.17;0.80;;;12.30;99.90;;;;;;5014345;28;20246;-70
2022/10/17 04:05:26;;;;;;;1.37;1.27;;;12.30;99.90;;;;;;5014329;28;20438;-67
2022/10/17 04:07:52;;;;;;;0.50;0.50;;;12.30;99.90;;;;;;5014143;28;20682;-69
2022/10/17 04:10:18;;;;;;;1.33;0.70;;;12.40;99.90;;;;;;5013922;28;20188;-69
2022/10/17 04:12:43;;;;;;;0.90;0.67;;;12.30;99.90;;;;;;5012739;28;20169;-70
2022/10/17 04:15:09;;;;;;;0.40;0.40;;;12.30;99.90;;;;;;5014101;28;20208;-68
2022/10/17 04:17:35;;;;;;;0.40;0.40;;;12.30;99.90;;;;;;5014066;28;20672;-69
2022/10/17 04:20:00;;;;;;;0.40;0.40;;;12.30;99.90;;;;;;5013904;28;20407;-70
2022/10/17 04:22:26;;;;;;;0.40;0.40;;;;;;;;;;5013889;28;20171;-70
2022/10/17 04:24:52;;;;;;;0.77;0.77;;;12.30;99.90;;;;;;5013759;28;20171;-69
2022/10/17 04:27:18;;;;;;;0.30;0.30;;;12.30;99.90;;;;;;5013789;28;20478;-70
2022/10/17 04:29:43;;;;;;;0.30;0.30;;;12.20;99.90;;;;;;5013759;28;20183;-70
2022/10/17 04:32:09;;;;;;;1.10;1.10;;;12.30;99.90;;;;;;5014033;28;20262;-67
2022/10/17 04:34:35;;;;;;;0.80;0.80;;;12.30;99.90;;;;;;5014016;28;20217;-69
2022/10/17 04:37:01;;;;;;;0.73;0.60;;;12.20;99.90;;;;;;5013816;28;20241;-68
2022/10/17 04:39:27;;;;;;;0.80;0.80;;;12.20;99.90;;;;;;5013039;28;20170;-67
2022/10/17 04:41:52;;;;;;;0.60;0.60;;;12.30;99.90;;;;;;5013623;28;20405;-70
2022/10/17 04:44:19;;;;;;;0.40;0.40;;;12.30;99.90;;;;;;5013714;28;20808;-70
2022/10/17 04:46:45;;;;;;;0.70;0.70;;;12.20;99.90;;;;;;5013600;28;20175;-69
2022/10/17 04:49:11;;;;;;;1.13;1.03;;;12.20;99.90;;;;;;5013482;28;20491;-66
2022/10/17 04:51:38;;;;;;;0.37;0.37;;;12.20;99.90;;;;;;5013821;28;20175;-68
2022/10/17 04:54:03;;;;;;;0.40;0.40;;;12.20;99.90;;;;;;5013541;28;20245;-64
2022/10/17 04:56:29;;;;;;;1.07;1.00;;;12.30;99.90;;;;;;5013605;28;20452;-64
2022/10/17 04:58:56;;;;;;;1.30;1.20;;;12.40;99.90;;;;;;5013453;28;20453;-67
2022/10/17 05:01:22;;;;;;;1.33;1.23;;;12.80;99.90;;;;;;5013684;28;20193;-67
2022/10/17 05:03:48;;;;;;;1.00;0.83;;;13.10;99.90;;;;;;5013703;28;20449;-68
2022/10/17 05:06:16;;;;;;;0.70;0.70;;;13.30;99.90;;;;;;5013723;28;20167;-67
2022/10/17 05:08:43;;;;;;;0.40;0.40;;;13.50;99.90;;;;;;5013484;28;20198;-69
2022/10/17 05:11:20;;;;;;;0.70;0.70;;;13.50;99.90;;;;;;5013396;28;20747;-67
2022/10/17 05:13:54;;;;;;;0.80;0.80;;;13.50;99.90;;;;;;5012356;28;20914;-66
2022/10/17 05:16:20;;;;;;;2.10;0.73;;;13.60;99.90;;;;;;5013619;28;20403;-67
2022/10/17 05:18:51;;;;;;;3.67;3.43;;;13.50;99.90;;;;;;5011848;28;20461;-67
2022/10/17 05:21:17;;;;;;;1.20;1.20;;;13.50;99.90;;;;;;5012136;28;20424;-68
2022/10/17 05:23:43;;;;;;;1.07;1.07;;;13.40;99.90;;;;;;5012145;28;20410;-67
2022/10/17 05:26:09;;;;;;;0.97;0.87;;;13.50;99.90;;;;;;5013446;28;20460;-67
2022/10/17 05:28:35;;;;;;;0.60;0.60;;;13.60;99.90;;;;;;5013258;28;20798;-66
2022/10/17 05:31:03;;;;;;;0.43;0.43;;;13.60;99.90;;;;;;5013339;28;20414;-68
2022/10/17 05:33:28;;;;;;;0.50;0.50;;;13.60;99.90;;;;;;5013712;28;20433;-66
2022/10/17 05:35:54;;;;;;;0.40;0.40;;;13.60;99.90;;;;;;5013443;28;20448;-68
2022/10/17 05:38:19;;;;;;;0.50;0.50;;;13.50;99.90;;;;;;5013132;28;20199;-67
2022/10/17 05:40:45;;;;;;;0.50;0.50;;;13.40;99.90;;;;;;5012975;28;20179;-68
2022/10/17 05:43:11;;;;;;;0.80;0.57;;;13.30;99.90;;;;;;5013281;28;20266;-70
2022/10/17 05:45:36;;;;;;;0.83;0.60;;;13.10;99.90;;;;;;5013123;28;20175;-70
2022/10/17 05:48:02;;;;;;;0.90;0.90;;;13.10;99.90;;;;;;5013243;28;20201;-69
2022/10/17 05:50:28;;;;;;;0.60;0.60;;;12.90;99.90;;;;;;5012884;28;20191;-68
2022/10/17 05:52:54;;;;;;;0.83;0.53;;;12.80;99.90;;;;;;5015989;28;20406;-70
2022/10/17 05:55:21;;;;;;;0.53;0.53;;;12.70;99.90;;;;;;5016710;28;20749;-69
2022/10/17 05:57:47;;;;;;;0.50;0.50;;;12.70;99.90;;;;;;5016381;28;20458;-70
2022/10/17 06:00:13;;;;;;;0.50;0.50;;;12.60;99.90;;;;;;5016316;28;20410;-69
2022/10/17 06:02:38;;;;;;;1.33;1.23;;;12.50;99.90;;;;;;5016395;28;20464;-67
2022/10/17 06:05:04;;;;;;;1.30;1.20;;;12.60;99.90;;;;;;5015828;28;20474;-68
2022/10/17 06:07:30;;;;;;;1.27;0.87;;;12.60;99.90;;;;;;5014859;28;20286;-68
2022/10/17 06:09:57;;;;;;;0.40;0.40;;;12.60;99.90;;;;;;5016120;28;20461;-71
2022/10/17 06:12:23;;;;;;;1.07;1.00;;;12.60;99.90;;;;;;5016112;28;20224;-69
2022/10/17 06:14:49;;;;;;;0.50;0.50;;;12.60;99.90;;;;;;5016176;28;20906;-70
2022/10/17 06:17:15;;;;;;;1.30;1.17;;;12.60;99.90;;;;;;5013823;28;20450;-71
2022/10/17 06:19:40;;;;;;;0.60;0.50;;;12.70;99.90;;;;;;5016075;28;20169;-71
2022/10/17 06:22:06;;;;;;;0.60;0.60;;;12.70;99.90;;;;;;5015375;28;20198;-70
2022/10/17 06:24:32;;;;;;;0.53;0.53;;;12.80;99.90;;;;;;5016350;28;20418;-70
2022/10/17 06:26:59;;;;;;;0.50;0.50;;;12.80;99.90;;;;;;5016126;28;20426;-71
2022/10/17 06:29:24;;;;;;;0.97;0.77;;;12.80;99.90;;;;;;5016138;28;20641;-70
2022/10/17 06:31:50;;;;;;;0.80;0.80;;;12.80;99.90;;;;;;5016347;28;20407;-70
2022/10/17 06:34:16;;;;;;;0.80;0.60;;;12.90;99.90;;;;;;5016124;28;20277;-71
2022/10/17 06:36:42;;;;;;;0.87;0.87;;;13.20;99.90;;;;;;5013498;28;20501;-69
2022/10/17 06:39:08;;;;;;;0.70;0.70;;;13.10;99.90;;;;;;5015874;28;20297;-70
2022/10/17 06:41:33;;;;;;;0.40;0.40;;;13.20;99.90;;;;;;5015750;28;20199;-68
2022/10/17 06:43:59;;;;;;;0.40;0.40;;;13.40;99.90;;;;;;5015256;28;20655;-66
2022/10/17 06:46:25;;;;;;;0.93;0.60;;;13.40;99.90;;;;;;5015879;28;20194;-71
2022/10/17 06:48:52;;;;;;;0.60;0.60;;;13.50;99.90;;;;;;5015560;28;20302;-70
2022/10/17 06:51:17;;;;;;;0.40;0.40;;;13.60;99.90;;;;;;5015825;28;20435;-69
2022/10/17 06:53:43;;;;;;;1.10;1.10;;;13.70;99.90;;;;;;5015861;28;20501;-71
2022/10/17 06:56:09;;;;;;;1.17;0.70;;;13.80;99.90;;;;;;5016056;28;20175;-69
2022/10/17 06:58:38;;;;;;;0.30;0.30;;;13.90;99.90;;;;;;5015829;28;20204;-70
2022/10/17 07:01:09;;;;;;;0.60;0.60;;;14.00;99.90;;;;;;5015921;28;20895;-71
2022/10/17 07:03:35;;;;;;;0.70;0.53;;;14.10;99.90;;;;;;5013891;28;20744;-69
2022/10/17 07:06:01;;;;;;;0.87;0.87;;;14.20;99.90;;;;;;5015566;28;20415;-72
2022/10/17 07:08:27;;;;;;;0.57;0.57;;;14.50;99.90;;;;;;5015149;28;20426;-70
2022/10/17 07:10:54;;;;;;;0.93;0.93;;;15.00;99.90;;;;;;5015524;28;20460;-69
2022/10/17 07:13:20;;;;;;;1.17;0.70;;;15.80;99.90;;;;;;5015345;28;20616;-71
2022/10/17 07:15:46;;;;;;;1.60;0.93;;;16.70;99.90;;;;;;5015732;28;20406;-70
2022/10/17 07:18:12;;;;;;;0.83;0.83;;;17.40;99.90;;;;;;5015237;28;20281;-71
2022/10/17 07:20:39;;;;;;;0.60;0.60;;;18.10;99.90;;;;;;5011525;28;20453;-72
2022/10/17 07:23:04;;;;;;;0.83;0.83;;;18.40;99.90;;;;;;5014945;28;20410;-67
2022/10/17 07:25:30;;;;;;;0.50;0.50;;;18.70;99.90;;;;;;5015156;28;20894;-69
2022/10/17 07:27:56;;;;;;;0.63;0.63;;;19.30;99.90;;;;;;5012574;28;20201;-67
2022/10/17 07:30:23;;;;;;;0.90;0.90;;;19.90;99.90;;;;;;5014563;28;20241;-67
2022/10/17 07:32:51;;;;;;;0.53;0.53;;;20.60;99.90;;;;;;5014843;28;20186;-68
2022/10/17 07:35:17;;;;;;;0.40;0.40;;;21.10;99.90;;;;;;5013770;28;20497;-70
2022/10/17 07:37:42;;;;;;;0.50;0.50;;;21.60;99.90;;;;;;5014847;28;20480;-70
2022/10/17 07:40:09;;;;;;;0.90;0.90;;;22.10;99.90;;;;;;5014589;28;20389;-70
2022/10/17 07:42:38;;;;;;;0.73;0.73;;;22.60;99.90;;;;;;5015314;28;20521;-70
2022/10/17 07:45:04;;;;;;;0.53;0.53;;;23.20;99.90;;;;;;5014640;28;20406;-71
2022/10/17 07:47:31;;;;;;;0.70;0.60;;;24.00;99.90;;;;;;5014601;28;20461;-72
2022/10/17 07:49:57;;;;;;;0.50;0.50;;;24.70;99.90;;;;;;5014364;28;20446;-70
2022/10/17 07:52:23;;;;;;;0.60;0.60;;;25.50;95.60;;;;;;5013743;28;20446;-72
2022/10/17 07:54:49;;;;;;;0.80;0.80;;;26.10;94.60;;;;;;5014286;28;20247;-71
2022/10/17 07:57:14;;;;;;;0.60;0.60;;;26.80;91.40;;;;;;5013059;28;20219;-73
2022/10/17 07:59:40;;;;;;;0.40;0.40;;;27.40;87.10;;;;;;5014343;28;20418;-71
2022/10/17 08:02:08;;;;;;;0.50;0.50;;;28.20;81.70;;;;;;5013062;28;20178;-71
2022/10/17 08:04:35;;;;;;;0.50;0.50;;;29.00;77.10;;;;;;5014307;28;20406;-72
2022/10/17 08:07:01;;;;;;;0.50;0.50;;;29.70;71.90;;;;;;5014338;28;20426;-73
2022/10/17 08:09:26;;;;;;;0.53;0.53;;;30.30;68.70;;;;;;5013964;28;20406;-71
2022/10/17 08:11:52;;;;;;;0.60;0.50;;;30.90;67.40;;;;;;5014682;28;20167;-74
2022/10/17 08:14:18;;;;;;;0.50;0.50;;;31.30;64.20;;;;;;5013345;28;20527;-70
2022/10/17 08:16:45;;;;;;;0.93;0.90;;;31.50;75.60;;;;;;5014022;28;20411;-72
2022/10/17 08:19:11;;;;;;;0.50;0.50;;;31.60;61.30;;;;;;5013801;28;20210;-70
2022/10/17 08:21:37;;;;;;;0.40;0.40;;;31.60;59.50;;;;;;5014083;28;20410;-72
2022/10/17 08:24:03;;;;;;;0.50;0.50;;;31.50;59.60;;;;;;5014158;28;20414;-72
2022/10/17 08:26:29;;;;;;;0.67;0.67;;;31.30;58.50;;;;;;5014060;28;20912;-70
2022/10/17 08:28:55;;;;;;;0.40;0.40;;;31.20;58.10;;;;;;5013635;28;20516;-71
2022/10/17 08:31:21;;;;;;;0.50;0.50;;;31.30;57.90;;;;;;5014087;28;20246;-72
2022/10/17 08:33:48;;;;;;;0.43;0.43;;;31.50;57.40;;;;;;5013866;28;20818;-70
2022/10/17 08:36:18;;;;;;;1.13;0.70;;;31.70;57.60;;;;;;5013914;28;20485;-70
2022/10/17 08:38:45;;;;;;;0.80;0.60;;;32.10;58.30;;;;;;5013488;28;20985;-70
2022/10/17 08:41:21;;;;;;;0.53;0.53;;;32.50;55.90;;;;;;5011724;28;20911;-71
2022/10/17 08:44:16;;;;;;;5.37;2.33;;;32.80;55.50;;;;;;5013954;28;20898;-70
2022/10/17 08:46:45;;;;;;;3.97;2.10;;;33.30;55.10;;;;;;4977247;28;20523;-71
2022/10/17 08:49:28;;;;;;;2.20;2.00;;;34.00;53.30;;;;;;5014211;28;20399;-71
2022/10/17 08:52:01;;;;;;;1.20;1.10;;;34.60;52.20;;;;;;5013864;28;20434;-73
2022/10/17 08:54:45;;;;;;;0.90;0.90;;;34.80;50.60;;;;;;5012722;28;20469;-71
2022/10/17 08:57:14;;;;;;;0.90;0.90;;;35.30;48.80;;;;;;5013827;28;20465;-72
2022/10/17 08:59:40;;;;;;;0.60;0.60;;;35.50;48.70;;;;;;5013770;28;20402;-72
2022/10/17 09:02:15;;;;;;;0.80;0.80;;;35.90;46.30;;;;;;5014079;28;20838;-70
2022/10/17 09:04:56;;;;;;;0.90;0.70;;;36.10;45.00;;;;;;5013710;28;20409;-69
2022/10/17 09:07:43;;;;;;;0.60;0.60;;;35.70;46.70;;;;;;5013926;28;20484;-72
2022/10/17 09:10:15;;;;;;;0.60;0.60;;;35.50;47.60;;;;;;5013629;28;20406;-69
2022/10/17 09:13:05;;;;;;;0.97;0.97;;;35.60;47.40;;;;;;5013665;28;20460;-71
2022/10/17 09:15:51;;;;;;;0.57;0.50;;;35.80;46.30;;;;;;5013858;28;20492;-71
2022/10/17 09:18:25;;;;;;;0.70;0.70;;;36.10;44.40;;;;;;5013429;28;20458;-73
2022/10/17 09:20:59;;;;;;;1.60;0.60;;;36.30;44.60;;;;;;5013307;28;20402;-73
2022/10/17 09:23:30;;;;;;;0.50;0.50;;;36.40;43.70;;;;;;5013293;28;20435;-71
2022/10/17 09:25:59;;;;;;;0.40;0.40;;;36.30;44.30;;;;;;5014839;28;20845;-71
2022/10/17 09:28:37;;;;;;;0.70;0.50;;;35.90;43.80;;;;;;5014924;28;20434;-70
2022/10/17 09:31:07;;;;;;;0.50;0.50;;;35.30;45.30;;;;;;5016826;28;20986;-73
2022/10/17 09:33:42;;;;;;;0.70;0.63;;;35.00;46.40;;;;;;5016913;28;20780;-70
2022/10/17 09:36:19;;;;;;;0.53;0.53;;;34.90;44.60;;;;;;5017221;28;20475;-70
2022/10/17 09:38:51;;;;;;;0.30;0.30;;;34.90;45.10;;;;;;5016862;28;20990;-72
2022/10/17 09:41:31;;;;;;;0.60;0.60;;;34.80;44.50;;;;;;5017067;28;20941;-71
2022/10/17 09:43:58;;;;;;;0.60;0.50;;;35.00;44.40;;;;;;5016845;28;20485;-70
2022/10/17 09:46:31;;;;;;;0.50;0.50;;;35.30;44.70;;;;;;5016839;28;20517;-72
2022/10/17 09:49:11;;;;;;;0.97;0.50;;;35.50;45.30;;;;;;5016565;28;20460;-70
2022/10/17 09:51:38;;;;;;;0.50;0.40;;;35.90;44.20;;;;;;5016751;28;20416;-71
2022/10/17 09:54:18;;;;;;;0.50;0.40;;;36.20;44.30;;;;;;5016527;28;20440;-73
2022/10/17 09:57:05;;;;;;;0.40;0.40;;;36.80;49.80;;;;;;5016946;28;20414;-73
2022/10/17 09:59:56;;;;;;;0.40;0.40;;;36.60;42.90;;;;;;5016379;28;20829;-70
2022/10/17 10:02:23;;;;;;;0.80;0.80;;;36.70;43.70;;;;;;5010820;28;20434;-71
2022/10/17 10:05:05;;;;;;;0.40;0.40;;;36.80;43.00;;;;;;5016483;28;20409;-73
2022/10/17 10:07:36;;;;;;;0.60;0.53;;;36.60;42.30;;;;;;5016474;28;20916;-72
2022/10/17 10:10:05;;;;;;;0.90;0.50;;;35.30;43.10;;;;;;5016212;28;20395;-70
2022/10/17 10:12:37;;;;;;;0.50;0.50;;;34.70;42.20;;;;;;5014529;28;20411;-68
2022/10/17 10:15:40;;;;;;;1.03;0.70;;;33.60;45.40;;;;;;5014676;28;20402;-72
2022/10/17 10:18:24;;;;;;;0.40;0.40;;;33.10;44.70;;;;;;5015460;28;20457;-69
2022/10/17 10:21:08;;;;;;;0.40;0.37;;;32.80;47.20;;;;;;5014116;28;20422;-71
2022/10/17 10:23:39;;;;;;;0.40;0.40;;;32.10;43.20;;;;;;5015404;28;20971;-70
2022/10/17 10:26:26;;;;;;;0.40;0.30;;;31.80;42.00;;;;;;5015421;28;20504;-70
2022/10/17 10:28:59;;;;;;;0.50;0.50;;;31.40;41.00;;;;;;5015821;28;20433;-70
2022/10/17 10:31:38;;;;;;;0.50;0.40;;;31.00;40.60;;;;;;5016070;28;20923;-70
2022/10/17 10:34:16;;;;;;;0.60;0.50;;;30.60;43.90;;;;;;5015937;28;20402;-69
2022/10/17 10:37:03;;;;;;;0.40;0.40;;;30.70;47.90;;;;;;5015672;28;20411;-72
2022/10/17 10:39:32;;;;;;;0.40;0.40;;;30.40;42.70;;;;;;5015745;28;20891;-69
2022/10/17 10:41:59;;;;;;;0.67;0.50;;;30.40;45.40;;;;;;5015734;28;20890;-69
2022/10/17 10:44:27;;;;;;;0.83;0.53;;;30.20;47.00;;;;;;5015914;28;20391;-72
2022/10/17 10:47:23;;;;;;;0.40;0.30;;;29.40;53.90;;;;;;5015476;28;20465;-69
2022/10/17 10:50:13;;;;;;;2.27;0.53;;;29.20;44.30;;;;;;5015416;28;20530;-69
2022/10/17 10:52:45;;;;;;;0.83;0.83;;;29.00;44.40;;;;;;5015591;28;20418;-72
2022/10/17 10:55:17;;;;;;;0.80;0.80;;;28.60;46.40;;;;;;5015603;28;20418;-71
2022/10/17 10:57:46;;;;;;;0.40;0.40;;;28.20;43.30;;;;;;5015253;28;20458;-70
2022/10/17 11:00:15;;;;;;;1.23;0.70;;;27.90;50.60;;;;;;5015219;28;20967;-73
2022/10/17 11:02:58;;;;;;;0.40;0.40;;;27.50;52.60;;;;;;5015453;28;20410;-70
2022/10/17 11:05:38;;;;;;;0.40;0.40;;;27.10;49.60;;;;;;5015356;28;20806;-69
2022/10/17 11:08:10;;;;;;;0.40;0.40;;;27.00;49.30;;;;;;5015200;28;20437;-73
2022/10/17 11:11:05;;;;;;;0.40;0.40;;;26.80;47.90;;;;;;5015232;28;20457;-71
2022/10/17 11:13:39;;;;;;;0.50;0.50;;;26.60;46.80;;;;;;5011526;28;20457;-69
2022/10/17 11:16:18;;;;;;;0.40;0.40;;;26.20;47.30;;;;;;5015520;28;20388;-72
2022/10/17 11:18:51;;;;;;;0.40;0.40;;;26.00;47.60;;;;;;5014888;28;20508;-70
2022/10/17 11:21:37;;;;;;;0.40;0.40;;;25.80;51.90;;;;;;5014930;28;20408;-72
2022/10/17 11:24:26;;;;;;;0.50;0.40;;;25.70;49.50;;;;;;5015022;28;20420;-68
2022/10/17 11:27:06;;;;;;;0.70;0.40;;;25.50;58.50;;;;;;5014948;28;20430;-69
2022/10/17 11:29:39;;;;;;;0.30;0.30;;;25.60;49.90;;;;;;5014805;28;20397;-71
2022/10/17 11:32:16;;;;;;;0.77;0.50;;;25.50;49.80;;;;;;5015004;28;20970;-72
2022/10/17 11:34:46;;;;;;;0.30;0.30;;;25.50;50.30;;;;;;5015044;28;20707;-69
2022/10/17 11:37:21;;;;;;;0.40;0.30;;;25.40;50.30;;;;;;5014619;28;20428;-71
2022/10/17 11:39:59;;;;;;;0.50;0.50;;;25.30;49.30;;;;;;5014557;28;20894;-72
2022/10/17 11:42:30;;;;;;;1.27;0.60;;;25.20;48.80;;;;;;5014892;28;20406;-73
2022/10/17 11:45:10;;;;;;;0.40;0.40;;;25.10;52.70;;;;;;5013396;28;20417;-68
2022/10/17 11:47:53;;;;;;;1.13;0.57;;;25.10;55.30;;;;;;5014584;28;20430;-70
2022/10/17 11:50:25;;;;;;;1.33;0.70;;;25.00;52.20;;;;;;5014414;28;20419;-71
2022/10/17 11:53:03;;;;;;;0.40;0.40;;;25.00;54.80;;;;;;5014250;28;20405;-71
2022/10/17 11:55:31;;;;;;;0.40;0.40;;;24.90;51.10;;;;;;5013847;28;20439;-71
2022/10/17 11:58:28;;;;;;;0.40;0.40;;;24.80;53.60;;;;;;5014223;28;20465;-71
2022/10/17 12:00:57;;;;;;;0.40;0.40;;;24.70;52.20;;;;;;5014400;28;20403;-72
2022/10/17 12:04:00;;;;;;;0.60;0.60;;;24.40;61.00;;;;;;5014235;28;20501;-71
2022/10/17 12:07:03;;;;;;;1.23;0.47;;;24.20;55.80;;;;;;5014202;28;20408;-71
2022/10/17 12:09:44;;;;;;;0.40;0.40;;;24.00;52.30;;;;;;5013963;28;20729;-69
2022/10/17 12:12:22;;;;;;;0.67;0.67;;;24.10;57.30;;;;;;5014193;28;20717;-72
2022/10/17 12:14:47;;;;;;;0.30;0.30;;;24.10;53.90;;;;;;5014246;28;20772;-69
2022/10/17 12:17:38;;;;;;;0.63;0.50;;;24.00;57.50;;;;;;5013951;28;20417;-72
2022/10/17 12:20:24;;;;;;;0.50;0.47;;;23.90;58.30;;;;;;5012716;28;20175;-71
2022/10/17 12:23:26;;;;;;;0.53;0.53;;;23.70;56.80;;;;;;5014319;28;20381;-69
2022/10/17 12:25:57;;;;;;;0.40;0.40;;;23.40;58.20;;;;;;5014078;28;20409;-72
2022/10/17 12:28:45;;;;;;;0.40;0.40;;;23.30;61.50;;;;;;5012759;28;20848;-71
2022/10/17 12:31:18;;;;;;;0.77;0.77;;;23.20;58.20;;;;;;5013914;28;20406;-71
2022/10/17 12:33:50;;;;;;;0.47;0.43;;;23.20;61.60;;;;;;5013918;28;20405;-71
2022/10/17 12:36:16;;;;;;;0.40;0.40;;;23.10;61.10;;;;;;5013773;28;20460;-69
2022/10/17 12:38:49;;;;;;;0.40;0.40;;;23.20;56.30;;;;;;5013581;28;20966;-71
2022/10/17 12:41:16;;;;;;;0.37;0.37;;;23.20;55.00;;;;;;5013786;28;20624;-68
2022/10/17 12:43:53;;;;;;;0.50;0.50;;;23.10;56.00;;;;;;5013853;28;20406;-70
2022/10/17 12:46:55;;;;;;;0.40;0.40;;;23.10;58.90;;;;;;5013613;28;20766;-70
2022/10/17 12:49:46;;;;;;;0.40;0.40;;;22.90;54.90;;;;;;5010715;28;20421;-70
2022/10/17 12:52:30;;;;;;;0.70;0.53;;;22.80;60.20;;;;;;5013677;28;20408;-70
2022/10/17 12:55:08;;;;;;;0.30;0.30;;;22.70;60.20;;;;;;5013431;28;20400;-71
2022/10/17 12:57:55;;;;;;;0.70;0.67;;;22.50;60.70;;;;;;5013616;28;20539;-69
2022/10/17 13:00:53;;;;;;;0.70;0.50;;;22.50;59.50;;;;;;5014024;28;20411;-71
2022/10/17 13:03:21;;;;;;;0.40;0.40;;;22.40;58.50;;;;;;5017855;28;20482;-68
2022/10/17 13:05:54;;;;;;;0.40;0.40;;;22.20;59.10;;;;;;5017472;28;20398;-69
2022/10/17 13:08:30;;;;;;;0.50;0.40;;;22.10;62.90;;;;;;5017438;28;20906;-70
2022/10/17 13:10:56;;;;;;;0.60;0.40;;;22.00;65.10;;;;;;5017417;28;20451;-71
2022/10/17 13:13:34;;;;;;;0.50;0.50;;;21.90;63.80;;;;;;5017545;28;20482;-69